Brockway, Michigan
Current Conditions -  °F | °C
As of 10:36 PM on Friday 24 Oct 2014 (Local Time) from KPHN Reporting Station
Overcast Overcast  
Wind Chill: 54°   Ceiling: 4200
Heat Index: 54°   Visibility: 10mi
Dew Point: 46°   Wind: 3mph
Humidity: 77%   Direction: 220°SW
Pressure: 29.96"   Gusts: NA
Location:  43.127°N, 82.8328°W
Report Text: KPHN 250236Z AUTO 22003KT 10SM OVC042 12/08 A2996 RMK AO2
Loading
Personal Weather Stations






























Interactive Weather Map
Tropical Storm Tracking
New forecast layout! Learn more

10-Day Weather Forecast

Advertisements
Track Severe Weather on mobile